Aviation Digital Data Service (ADDS)

Output produced by METARs form (1745 UTC 12 December 2017)
found at http://aviationweather.gov/adds/metars/
 
KHLG 121740Z 1218/1318 30015G25KT P6SM OVC035